Dades meteomassalio
Diari Summary for Marc 4, 2017 Units:  English    Metric   Both
« Previous Day
Next Day »
Diari Semanal Mensual Anual Personalitzat
  Maxima: Minima: Mijana:
Temperatura: TemperatureC °F 4.3 °F 8.3 °F
Rosada: DewpointC °F 0.5 °F 2 °F
Humitat: Humidity % 46 % 66 %
Velocitat del vent: WindSpeedKMH mph 0.0 mph 24.7 mph
Racha vent: WindSpeedGustKMH mph - -
Vent:- - WNW
Pressio: PressurehPa in 998.2 in -
Pluja: 4.6 in    
Historical Graphs
 
 
Tabular Data for Marc 4, 2017
Time Temperature Dew Point Pressure Wind Wind Speed Wind Gust Humidity Rainfall Rate (Hourly) solar Conditions
TemperatureC °F DewpointC °F PressurehPa in Calm     Humidity % HourlyPrecipMM in SolarRadiationWatts/m^2 W/m2 Conditions
00:04 6.8 °F 4.9 °F 998.9 in WNW 38.9 mph 38.9 mph 88 % 2.3 in 0.0 W/m2 RA
00:09 6.7 °F 4.8 °F 998.9 in West 42.6 mph 42.6 mph 88 % 2.3 in 0.0 W/m2 RA
00:14 6.6 °F 4.8 °F 998.9 in West 31.5 mph 31.5 mph 88 % 2.3 in 0.0 W/m2 RA
00:19 6.6 °F 4.7 °F 998.5 in WNW 30.6 mph 30.6 mph 88 % 2.3 in 0.0 W/m2 RA
00:24 6.5 °F 4.7 °F 998.5 in West 35.2 mph 35.2 mph 88 % 2.3 in 0.0 W/m2 RA
00:29 6.5 °F 4.7 °F 998.5 in WNW 29.6 mph 29.6 mph 88 % 2.3 in 0.0 W/m2 RA
00:34 6.4 °F 4.6 °F 998.2 in NNW 40.7 mph 40.7 mph 88 % 2.8 in 0.0 W/m2 RA
00:39 6.4 °F 4.2 °F 998.2 in WNW 53.7 mph 53.7 mph 86 % 2.8 in 0.0 W/m2 RA
00:44 6.3 °F 4.2 °F 998.2 in WNW 46.3 mph 46.3 mph 86 % 2.3 in 0.0 W/m2
00:49 6.3 °F 4.1 °F 998.2 in WNW 46.3 mph 46.3 mph 86 % 2.3 in 0.0 W/m2 RA
00:54 6.2 °F 4.0 °F 998.2 in NW 44.4 mph 44.4 mph 86 % 2.3 in 0.0 W/m2 RA
00:59 6.1 °F 4.1 °F 998.5 in NW 42.6 mph 42.6 mph 87 % 2.3 in 0.0 W/m2 RA
01:04 5.9 °F 3.9 °F 998.9 in NW 50.0 mph 50.0 mph 87 % 2.3 in 0.0 W/m2 RA
01:09 5.8 °F 3.8 °F 998.9 in NW 37.0 mph 37.0 mph 87 % 2.3 in 0.0 W/m2 RA
01:14 5.8 °F 3.9 °F 998.9 in ENE 33.3 mph 33.3 mph 88 % 2.5 in 0.0 W/m2 RA
01:19 5.7 °F 3.9 °F 998.9 in WNW 42.6 mph 42.6 mph 88 % 2.5 in 0.0 W/m2 RA
01:24 5.8 °F 3.9 °F 998.9 in West 33.3 mph 33.3 mph 88 % 2.3 in 0.0 W/m2
01:29 5.8 °F 3.9 °F 998.9 in WNW 44.4 mph 44.4 mph 88 % 2.3 in 0.0 W/m2 RA
01:34 5.8 °F 3.9 °F 998.9 in WNW 40.7 mph 40.7 mph 88 % 2.0 in 0.0 W/m2 CLR
01:39 5.8 °F 3.9 °F 998.5 in WNW 24.1 mph 24.1 mph 88 % 2.3 in 0.0 W/m2 RA
01:44 5.8 °F 4.1 °F 998.5 in West 35.2 mph 35.2 mph 89 % 2.3 in 0.0 W/m2 RA
01:49 5.8 °F 4.2 °F 998.5 in WNW 31.5 mph 31.5 mph 89 % 2.3 in 0.0 W/m2 CLR
01:54 5.9 °F 4.3 °F 998.5 in NW 29.0 mph 29.0 mph 89 % 2.3 in 0.0 W/m2 RA
01:59 6.0 °F 4.2 °F 998.5 in WNW 37.0 mph 37.0 mph 88 % 2.0 in 0.0 W/m2
02:04 6.0 °F 4.2 °F 998.5 in NW 40.2 mph 40.2 mph 88 % 1.8 in 0.0 W/m2 CLR
02:09 6.1 °F 4.1 °F 998.5 in WNW 42.6 mph 42.6 mph 87 % 1.8 in 0.0 W/m2 RA
02:14 6.1 °F 4.1 °F 998.5 in West 37.0 mph 37.0 mph 87 % 1.5 in 0.0 W/m2 CLR
02:19 6.1 °F 4.1 °F 998.5 in NW 35.2 mph 35.2 mph 87 % 1.3 in 0.0 W/m2 CLR
02:24 6.2 °F 4.2 °F 998.9 in WNW 37.0 mph 37.0 mph 87 % 1.3 in 0.0 W/m2 CLR
02:29 6.2 °F 4.1 °F 998.9 in WNW 42.6 mph 42.6 mph 86 % 1.0 in 0.0 W/m2 CLR
02:34 6.3 °F 4.1 °F 998.9 in West 55.5 mph 55.5 mph 86 % 1.3 in 0.0 W/m2 RA
02:39 6.3 °F 4.0 °F 998.9 in WNW 42.6 mph 42.6 mph 85 % 0.8 in 0.0 W/m2 CLR
02:44 6.3 °F 4.0 °F 998.9 in West 44.4 mph 44.4 mph 85 % 0.5 in 0.0 W/m2 CLR
02:49 6.3 °F 4.0 °F 998.9 in WNW 40.7 mph 40.7 mph 85 % 0.5 in 0.0 W/m2 CLR
02:54 6.4 °F 3.9 °F 999.2 in WNW 33.3 mph 33.3 mph 84 % 0.5 in 0.0 W/m2 CLR
02:59 6.3 °F 4.0 °F 998.9 in NW 25.9 mph 25.9 mph 85 % 0.5 in 0.0 W/m2 CLR
03:04 6.3 °F 3.8 °F 998.9 in WNW 44.4 mph 44.4 mph 84 % 0.5 in 0.0 W/m2 CLR
03:09 6.3 °F 3.8 °F 999.2 in NW 35.2 mph 35.2 mph 84 % 0.3 in 0.0 W/m2 CLR
03:14 6.3 °F 3.8 °F 999.2 in WNW 37.0 mph 37.0 mph 84 % 0.3 in 0.0 W/m2 CLR
03:19 6.4 °F 3.7 °F 999.2 in WNW 42.6 mph 42.6 mph 83 % 0.3 in 0.0 W/m2 CLR
03:24 6.5 °F 3.7 °F 999.5 in NNW 42.6 mph 42.6 mph 82 % 0.3 in 0.0 W/m2 CLR
03:29 6.6 °F 3.5 °F 999.5 in West 38.9 mph 38.9 mph 81 % 0.3 in 0.0 W/m2 CLR
03:35 6.5 °F 3.5 °F 999.2 in NW 37.0 mph 37.0 mph 81 % 0.0 in 0.0 W/m2 CLR
03:40 6.6 °F 3.3 °F 999.2 in WNW 33.3 mph 33.3 mph 80 % 0.0 in 0.0 W/m2 CLR
03:45 6.6 °F 3.2 °F 999.2 in NW 40.7 mph 40.7 mph 79 % 0.0 in 0.0 W/m2 CLR
03:50 6.6 °F 3.2 °F 999.2 in WNW 42.6 mph 42.6 mph 79 % 0.0 in 0.0 W/m2 CLR
03:55 6.6 °F 3.2 °F 999.2 in NW 27.8 mph 27.8 mph 79 % 0.0 in 0.0 W/m2 CLR
04:00 6.6 °F 3.1 °F 999.5 in WNW 48.1 mph 48.1 mph 78 % 0.0 in 0.0 W/m2 CLR
04:05 6.7 °F 3.1 °F 999.5 in NW 29.6 mph 29.9 mph 78 % 0.0 in 0.0 W/m2 CLR
04:10 6.7 °F 2.9 °F 999.5 in WNW 46.3 mph 46.3 mph 77 % 0.0 in 0.0 W/m2 CLR
04:15 6.7 °F 2.7 °F 999.5 in West 40.2 mph 40.2 mph 76 % 0.0 in 0.0 W/m2 CLR
04:20 6.7 °F 2.8 °F 999.9 in NNW 31.5 mph 31.5 mph 76 % 0.0 in 0.0 W/m2 CLR
04:25 6.7 °F 2.7 °F 999.9 in NNW 29.6 mph 29.6 mph 76 % 0.0 in 0.0 W/m2 CLR
04:30 6.7 °F 2.8 °F 999.9 in West 25.9 mph 25.9 mph 76 % 0.0 in 0.0 W/m2 CLR
04:35 6.8 °F 2.5 °F 999.9 in WNW 42.6 mph 42.6 mph 74 % 0.0 in 0.0 W/m2 CLR
04:40 6.8 °F 2.5 °F 1000.2 in NW 43.4 mph 43.4 mph 74 % 0.0 in 0.0 W/m2 CLR
04:45 6.8 °F 2.4 °F 1000.2 in WNW 31.5 mph 31.5 mph 74 % 0.0 in 0.0 W/m2 CLR
04:50 6.8 °F 2.3 °F 1000.2 in WNW 37.0 mph 37.0 mph 73 % 0.0 in 0.0 W/m2 CLR
04:55 6.8 °F 2.3 °F 1000.6 in WNW 44.4 mph 44.4 mph 73 % 0.0 in 0.0 W/m2 CLR
05:00 6.8 °F 2.1 °F 1000.6 in WNW 48.1 mph 48.1 mph 72 % 0.0 in 0.0 W/m2 CLR
05:05 6.9 °F 2.2 °F 1000.9 in WNW 44.4 mph 44.4 mph 72 % 0.0 in 0.0 W/m2 CLR
05:10 6.9 °F 2.2 °F 1000.9 in NNW 33.3 mph 33.3 mph 72 % 0.0 in 0.0 W/m2 CLR
05:15 6.8 °F 2.1 °F 1001.2 in NW 29.6 mph 29.6 mph 72 % 0.0 in 0.0 W/m2 CLR
05:20 6.8 °F 2.1 °F 1001.2 in NNW 33.3 mph 33.3 mph 72 % 0.0 in 0.0 W/m2 CLR
05:25 6.8 °F 2.1 °F 1001.6 in NNW 25.9 mph 25.9 mph 72 % 0.0 in 0.0 W/m2 CLR
05:30 6.6 °F 3.0 °F 1001.6 in NW 24.1 mph 24.1 mph 78 % 0.0 in 0.0 W/m2 CLR
05:35 6.3 °F 3.3 °F 1001.6 in NW 22.2 mph 22.2 mph 81 % 0.0 in 0.0 W/m2 CLR
05:40 6.2 °F 3.2 °F 1001.6 in NW 20.4 mph 20.4 mph 81 % 0.0 in 0.0 W/m2 CLR
05:45 6.2 °F 3.0 °F 1001.6 in NNW 22.5 mph 22.5 mph 80 % 0.0 in 0.0 W/m2 CLR
05:50 6.4 °F 2.7 °F 1001.9 in WNW 20.4 mph 20.4 mph 77 % 0.0 in 0.0 W/m2 CLR
05:55 6.6 °F 2.1 °F 1001.9 in WNW 22.2 mph 22.2 mph 73 % 0.0 in 0.0 W/m2 CLR
06:00 6.6 °F 1.9 °F 1001.9 in NW 27.4 mph 27.4 mph 72 % 0.0 in 0.0 W/m2 CLR
06:05 6.7 °F 1.8 °F 1001.9 in WNW 35.2 mph 35.2 mph 71 % 0.0 in 0.0 W/m2 CLR
06:10 6.8 °F 1.7 °F 1002.3 in WNW 37.0 mph 37.0 mph 70 % 0.0 in 0.0 W/m2 CLR
06:15 6.8 °F 1.6 °F 1002.3 in WNW 37.0 mph 37.0 mph 69 % 0.0 in 0.0 W/m2 CLR
06:20 6.8 °F 1.6 °F 1002.3 in NW 38.6 mph 38.6 mph 69 % 0.0 in 0.0 W/m2 CLR
06:25 6.9 °F 1.4 °F 1002.3 in NW 42.6 mph 42.6 mph 68 % 0.0 in 0.0 W/m2 CLR
06:30 6.8 °F 1.3 °F 1002.6 in NW 42.6 mph 42.6 mph 68 % 0.0 in 0.0 W/m2 CLR
06:35 6.8 °F 1.3 °F 1002.6 in West 32.2 mph 32.2 mph 68 % 0.0 in 0.0 W/m2 CLR
06:40 6.8 °F 1.1 °F 1002.6 in WNW 35.2 mph 35.2 mph 67 % 0.0 in 0.0 W/m2 CLR
06:45 6.9 °F 1.2 °F 1002.6 in West 42.6 mph 42.6 mph 67 % 0.0 in 0.0 W/m2 CLR
06:50 6.9 °F 1.2 °F 1002.6 in WNW 35.2 mph 35.2 mph 67 % 0.0 in 0.0 W/m2 CLR
06:55 6.8 °F 1.1 °F 1002.9 in WNW 46.3 mph 46.3 mph 67 % 0.0 in 0.0 W/m2 CLR
07:00 6.8 °F 0.9 °F 1002.9 in WNW 27.8 mph 27.8 mph 66 % 0.0 in 0.0 W/m2 CLR
07:05 6.8 °F 0.9 °F 1003.3 in WNW 29.6 mph 29.6 mph 66 % 0.0 in 0.0 W/m2 CLR
07:10 6.8 °F 0.9 °F 1003.6 in WNW 30.6 mph 30.6 mph 66 % 0.0 in 0.0 W/m2 CLR
07:15 6.7 °F 1.0 °F 1003.6 in WNW 35.4 mph 35.4 mph 67 % 0.0 in 0.0 W/m2 CLR
07:20 6.8 °F 0.9 °F 1003.6 in WNW 48.1 mph 48.1 mph 66 % 0.0 in 0.0 W/m2 OVC
07:25 6.7 °F 0.9 °F 1003.9 in NW 29.6 mph 29.6 mph 67 % 0.0 in 0.0 W/m2 OVC
07:30 6.6 °F 0.7 °F 1003.9 in WNW 25.9 mph 25.9 mph 66 % 0.0 in 0.0 W/m2 OVC
07:35 6.6 °F 0.9 °F 1004.3 in West 29.0 mph 29.0 mph 67 % 0.0 in 0.0 W/m2 OVC
07:40 6.5 °F 0.8 °F 1004.3 in NW 32.2 mph 32.2 mph 67 % 0.0 in 7.0 W/m2 BKN
07:45 6.5 °F 0.8 °F 1004.3 in WNW 31.5 mph 31.5 mph 67 % 0.0 in 11.0 W/m2 BKN
07:50 6.4 °F 0.8 °F 1004.6 in West 25.9 mph 25.9 mph 67 % 0.0 in 16.0 W/m2 BKN
07:55 6.4 °F 0.6 °F 1004.6 in WNW 32.2 mph 32.2 mph 66 % 0.0 in 21.0 W/m2 BKN
08:00 6.4 °F 0.5 °F 1004.6 in WNW 38.6 mph 38.6 mph 66 % 0.0 in 26.0 W/m2 BKN
08:05 6.4 °F 0.5 °F 1005.0 in NW 25.9 mph 25.9 mph 66 % 0.0 in 28.0 W/m2 BKN
08:11 6.4 °F 0.5 °F 1005.0 in West 35.4 mph 35.4 mph 66 % 0.0 in 30.0 W/m2 BKN
08:15 6.5 °F 0.6 °F 1005.3 in WNW 31.5 mph 31.5 mph 66 % 0.0 in 32.0 W/m2 BKN
08:21 6.5 °F 0.6 °F 1005.3 in WNW 31.5 mph 31.5 mph 66 % 0.0 in 35.0 W/m2 BKN
08:26 6.4 °F 0.7 °F 1005.3 in NW 42.6 mph 42.6 mph 67 % 0.0 in 51.0 W/m2 SCT
08:30 6.6 °F 0.7 °F 1005.3 in West 35.2 mph 35.2 mph 66 % 0.0 in 84.0 W/m2 SCT
08:36 6.7 °F 0.8 °F 1005.6 in West 30.6 mph 30.6 mph 66 % 0.0 in 97.0 W/m2 FEW
08:41 6.8 °F 1.1 °F 1005.6 in WNW 35.2 mph 35.2 mph 67 % 0.0 in 121.0 W/m2 CLR
08:46 6.7 °F 0.8 °F 1005.6 in WNW 35.2 mph 35.2 mph 66 % 0.0 in 100.0 W/m2 CLR
08:51 6.8 °F 0.9 °F 1005.6 in WNW 31.5 mph 31.5 mph 66 % 0.0 in 183.0 W/m2 CLR
08:56 6.9 °F 1.4 °F 1006.0 in WSW 24.1 mph 24.1 mph 68 % 0.0 in 200.0 W/m2 CLR
09:01 7.1 °F 1.4 °F 1005.6 in WNW 22.5 mph 22.5 mph 67 % 0.0 in 221.0 W/m2 CLR
09:06 7.2 °F 1.3 °F 1006.0 in WNW 22.2 mph 22.2 mph 66 % 0.0 in 239.0 W/m2 CLR
09:11 7.4 °F 1.7 °F 1006.0 in WNW 29.6 mph 29.6 mph 67 % 0.0 in 257.0 W/m2 CLR
09:16 7.5 °F 1.6 °F 1006.0 in WNW 29.6 mph 29.6 mph 66 % 0.0 in 271.0 W/m2 CLR
09:21 7.6 °F 1.7 °F 1006.0 in NW 27.8 mph 27.8 mph 66 % 0.0 in 290.0 W/m2 CLR
09:26 7.7 °F 2.2 °F 1006.3 in NW 25.9 mph 25.9 mph 68 % 0.0 in 304.0 W/m2 CLR
09:31 7.8 °F 2.1 °F 1006.3 in NW 32.2 mph 32.2 mph 67 % 0.0 in 320.0 W/m2 CLR
09:36 8.0 °F 2.1 °F 1006.3 in WNW 37.0 mph 37.0 mph 66 % 0.0 in 334.0 W/m2 CLR
09:41 8.1 °F 1.0 °F 1006.3 in WNW 38.9 mph 38.9 mph 61 % 0.0 in 350.0 W/m2 CLR
09:46 8.2 °F 1.4 °F 1006.3 in WNW 37.0 mph 37.0 mph 62 % 0.0 in 366.0 W/m2 CLR
09:51 8.3 °F 1.4 °F 1006.3 in WNW 42.6 mph 42.6 mph 62 % 0.0 in 380.0 W/m2 CLR
09:56 8.5 °F 1.6 °F 1006.3 in NW 29.6 mph 29.6 mph 62 % 0.0 in 394.0 W/m2 CLR
10:01 8.5 °F 1.2 °F 1006.3 in WNW 38.9 mph 38.9 mph 60 % 0.0 in 408.0 W/m2 CLR
10:06 8.6 °F 1.5 °F 1006.7 in WNW 31.5 mph 31.5 mph 61 % 0.0 in 424.0 W/m2 CLR
10:11 8.8 °F 1.4 °F 1006.7 in West 22.2 mph 22.2 mph 60 % 0.0 in 438.0 W/m2 CLR
10:16 8.9 °F 1.1 °F 1006.7 in West 35.4 mph 35.4 mph 58 % 0.0 in 450.0 W/m2 CLR
10:21 9.1 °F 1.5 °F 1006.7 in NNW 29.6 mph 29.6 mph 59 % 0.0 in 462.0 W/m2 CLR
10:26 9.1 °F 1.3 °F 1006.7 in WNW 35.4 mph 35.4 mph 58 % 0.0 in 478.0 W/m2 CLR
10:31 9.1 °F 1.4 °F 1006.7 in WNW 35.2 mph 35.2 mph 59 % 0.0 in 517.0 W/m2 CLR
10:36 9.1 °F 1.1 °F 1007.0 in NW 42.6 mph 42.6 mph 57 % 0.0 in 513.0 W/m2 CLR
10:41 9.2 °F 1.1 °F 1007.0 in WNW 42.6 mph 42.6 mph 57 % 0.0 in 517.0 W/m2 CLR
10:46 9.1 °F 0.8 °F 1007.0 in WNW 40.7 mph 40.7 mph 56 % 0.0 in 527.0 W/m2 CLR
10:51 9.3 °F 1.2 °F 1007.0 in NW 27.8 mph 27.8 mph 57 % 0.0 in 540.0 W/m2 CLR
10:56 9.4 °F 1.3 °F 1007.0 in NW 33.3 mph 33.3 mph 57 % 0.0 in 550.0 W/m2 CLR
11:01 9.6 °F 1.4 °F 1007.0 in NW 29.6 mph 29.6 mph 57 % 0.0 in 563.0 W/m2 CLR
11:06 9.7 °F 1.6 °F 1007.0 in West 31.5 mph 31.5 mph 57 % 0.0 in 548.0 W/m2 CLR
11:11 9.6 °F 1.4 °F 1007.3 in WNW 42.6 mph 42.6 mph 57 % 0.0 in 599.0 W/m2 CLR
11:16 9.6 °F 1.4 °F 1007.3 in West 37.0 mph 37.0 mph 57 % 0.0 in 598.0 W/m2 CLR
11:21 9.7 °F 1.1 °F 1007.3 in NNW 33.3 mph 33.3 mph 55 % 0.0 in 615.0 W/m2 CLR
11:26 9.8 °F 1.9 °F 1007.3 in NW 29.0 mph 29.0 mph 58 % 0.0 in 635.0 W/m2 CLR
11:31 9.9 °F 1.5 °F 1007.3 in NW 31.5 mph 31.5 mph 56 % 0.0 in 663.0 W/m2 CLR
11:36 9.8 °F 1.4 °F 1007.3 in NW 35.2 mph 35.2 mph 56 % 0.0 in 599.0 W/m2 CLR
11:41 9.8 °F 1.4 °F 1007.3 in NW 37.0 mph 37.0 mph 56 % 0.0 in 622.0 W/m2 CLR
11:46 9.9 °F 1.8 °F 1007.3 in WNW 27.8 mph 27.8 mph 57 % 0.0 in 643.0 W/m2 CLR
11:51 10.0 °F 2.1 °F 1007.3 in NNW 31.5 mph 31.5 mph 58 % 0.0 in 657.0 W/m2 CLR
11:56 10.0 °F 1.4 °F 1007.7 in NW 35.4 mph 35.4 mph 55 % 0.0 in 656.0 W/m2 CLR
12:01 10.1 °F 1.4 °F 1007.3 in NW 35.2 mph 35.2 mph 55 % 0.0 in 666.0 W/m2 CLR
12:06 10.3 °F 1.4 °F 1007.3 in WNW 31.5 mph 31.5 mph 54 % 0.0 in 675.0 W/m2 CLR
12:11 10.6 °F 2.4 °F 1007.3 in WNW 25.9 mph 25.9 mph 57 % 0.0 in 664.0 W/m2 CLR
12:16 10.4 °F 1.7 °F 1007.3 in NW 40.7 mph 40.7 mph 55 % 0.0 in 649.0 W/m2 CLR
12:21 10.3 °F 1.1 °F 1007.3 in WNW 35.2 mph 35.2 mph 53 % 0.0 in 640.0 W/m2 CLR
12:26 10.4 °F 1.7 °F 1007.3 in WNW 38.9 mph 38.9 mph 55 % 0.0 in 687.0 W/m2 CLR
12:31 10.5 °F 1.3 °F 1007.3 in NW 37.0 mph 37.0 mph 53 % 0.0 in 686.0 W/m2 CLR
12:36 10.5 °F 0.8 °F 1007.3 in NW 31.5 mph 31.5 mph 51 % 0.0 in 689.0 W/m2 CLR
12:41 10.6 °F 1.4 °F 1007.3 in WNW 40.7 mph 40.7 mph 53 % 0.0 in 691.0 W/m2 CLR
12:46 10.5 °F 0.8 °F 1007.3 in NNW 33.3 mph 33.3 mph 51 % 0.0 in 693.0 W/m2 CLR
12:51 10.6 °F 1.4 °F 1007.3 in NW 35.2 mph 35.2 mph 53 % 0.0 in 694.0 W/m2 CLR
12:56 10.8 °F 1.6 °F 1007.0 in NW 31.5 mph 31.5 mph 53 % 0.0 in 696.0 W/m2 CLR
13:01 10.9 °F 2.2 °F 1007.0 in NW 31.5 mph 31.5 mph 55 % 0.0 in 698.0 W/m2 CLR
13:06 11.1 °F 1.6 °F 1007.3 in NW 33.8 mph 33.8 mph 52 % 0.0 in 700.0 W/m2 CLR
13:11 11.1 °F 1.9 °F 1007.3 in NNW 30.6 mph 30.6 mph 53 % 0.0 in 700.0 W/m2 CLR
13:16 11.2 °F 1.4 °F 1007.0 in NW 20.4 mph 20.4 mph 51 % 0.0 in 703.0 W/m2 CLR
13:21 11.4 °F 1.9 °F 1007.0 in NNW 33.3 mph 33.3 mph 52 % 0.0 in 705.0 W/m2 CLR
13:26 11.3 °F 1.8 °F 1007.0 in NW 27.8 mph 27.8 mph 52 % 0.0 in 707.0 W/m2 CLR
13:31 11.6 °F 2.3 °F 1007.0 in WNW 20.4 mph 20.6 mph 53 % 0.0 in 705.0 W/m2 CLR
13:36 11.6 °F 2.1 °F 1007.0 in NNW 25.9 mph 25.9 mph 52 % 0.0 in 707.0 W/m2 CLR
13:42 11.6 °F 2.3 °F 1007.3 in NNW 32.2 mph 32.2 mph 53 % 0.0 in 707.0 W/m2 CLR
13:47 11.5 °F 2.2 °F 1007.3 in WNW 27.8 mph 27.8 mph 53 % 0.0 in 701.0 W/m2 CLR
13:52 11.6 °F 2.6 °F 1007.0 in NW 40.7 mph 40.7 mph 54 % 0.0 in 700.0 W/m2 CLR
13:57 11.6 °F 2.3 °F 1007.0 in NW 31.5 mph 31.5 mph 53 % 0.0 in 694.0 W/m2 CLR
14:02 11.7 °F 2.7 °F 1007.3 in WNW 31.5 mph 31.5 mph 54 % 0.0 in 691.0 W/m2 CLR
14:07 11.6 °F 1.6 °F 1007.3 in NW 24.1 mph 24.1 mph 50 % 0.0 in 686.0 W/m2 CLR
14:12 11.9 °F 2.4 °F 1007.3 in NNW 27.8 mph 27.8 mph 52 % 0.0 in 700.0 W/m2 CLR
14:17 12.1 °F 1.4 °F 1007.3 in West 25.9 mph 25.9 mph 48 % 0.0 in 738.0 W/m2 CLR
14:22 12.1 °F 1.4 °F 1007.3 in WNW 29.6 mph 29.6 mph 48 % 0.0 in 737.0 W/m2 CLR
14:27 12.1 °F 1.4 °F 1007.3 in WNW 29.6 mph 29.6 mph 48 % 0.0 in 700.0 W/m2 CLR
14:32 12.1 °F 1.7 °F 1007.0 in NW 31.5 mph 31.5 mph 49 % 0.0 in 679.0 W/m2 CLR
14:37 12.1 °F 2.3 °F 1007.0 in WNW 31.5 mph 31.5 mph 51 % 0.0 in 694.0 W/m2 CLR
14:42 12.1 °F 1.7 °F 1007.0 in NW 25.9 mph 25.9 mph 49 % 0.0 in 645.0 W/m2 CLR
14:47 12.2 °F 2.6 °F 1007.0 in West 18.5 mph 18.5 mph 52 % 0.0 in 640.0 W/m2 CLR
14:52 12.4 °F 2.5 °F 1007.0 in WNW 20.4 mph 20.4 mph 51 % 0.0 in 629.0 W/m2 CLR
14:57 12.4 °F 3.1 °F 1007.0 in NW 27.8 mph 27.8 mph 53 % 0.0 in 631.0 W/m2 CLR
15:02 12.3 °F 1.8 °F 1007.0 in West 30.6 mph 30.6 mph 49 % 0.0 in 621.0 W/m2 CLR
15:07 12.1 °F 2.6 °F 1007.3 in NW 29.6 mph 29.6 mph 52 % 0.0 in 598.0 W/m2 CLR
15:12 12.3 °F 2.9 °F 1007.0 in WNW 29.6 mph 29.6 mph 53 % 0.0 in 594.0 W/m2 CLR
15:17 12.3 °F 1.9 °F 1007.3 in WNW 24.1 mph 24.1 mph 49 % 0.0 in 587.0 W/m2 CLR
15:22 12.3 °F 2.2 °F 1007.3 in WNW 31.5 mph 31.5 mph 50 % 0.0 in 214.0 W/m2 CLR
15:27 12.1 °F 2.6 °F 1007.3 in WNW 25.9 mph 25.9 mph 52 % 0.0 in 580.0 W/m2 CLR
15:32 12.2 °F 1.2 °F 1007.0 in West 31.5 mph 31.5 mph 47 % 0.0 in 605.0 W/m2 CLR
15:37 12.3 °F 2.2 °F 1007.0 in NNW 24.1 mph 24.1 mph 50 % 0.0 in 476.0 W/m2 CLR
15:42 12.0 °F 1.6 °F 1007.3 in WNW 22.5 mph 22.5 mph 49 % 0.0 in 105.0 W/m2 CLR
15:47 11.9 °F 2.1 °F 1007.3 in NNW 24.1 mph 24.1 mph 51 % 0.0 in 592.0 W/m2 CLR
15:52 11.8 °F 1.9 °F 1007.3 in WNW 27.8 mph 27.8 mph 51 % 0.0 in 132.0 W/m2 CLR
15:57 12.1 °F 2.2 °F 1007.3 in WNW 30.6 mph 30.6 mph 51 % 0.0 in 519.0 W/m2 CLR
16:02 12.3 °F 1.6 °F 1007.3 in West 19.3 mph 19.3 mph 48 % 0.0 in 512.0 W/m2 CLR
16:07 12.3 °F 1.8 °F 1007.3 in WNW 24.1 mph 24.1 mph 49 % 0.0 in 448.0 W/m2 CLR
16:12 12.3 °F 1.6 °F 1007.3 in NNW 24.1 mph 24.1 mph 48 % 0.0 in 473.0 W/m2 CLR
16:17 12.4 °F 1.9 °F 1007.3 in NNW 20.4 mph 20.4 mph 49 % 0.0 in 464.0 W/m2 CLR
16:22 12.7 °F 1.9 °F 1007.3 in NW 24.1 mph 24.1 mph 48 % 0.0 in 450.0 W/m2 CLR
16:27 12.6 °F 2.2 °F 1007.3 in NW 27.4 mph 27.4 mph 49 % 0.0 in 436.0 W/m2 CLR
16:32 12.3 °F 2.2 °F 1007.3 in NNW 20.4 mph 20.4 mph 50 % 0.0 in 315.0 W/m2 CLR
16:37 12.4 °F 1.9 °F 1007.7 in North 22.2 mph 22.2 mph 49 % 0.0 in 424.0 W/m2 CLR
16:42 12.5 °F 2.3 °F 1007.3 in North 25.9 mph 25.9 mph 50 % 0.0 in 380.0 W/m2 CLR
16:47 12.6 °F 1.8 °F 1007.7 in NW 24.1 mph 24.1 mph 48 % 0.0 in 376.0 W/m2 CLR
16:52 12.6 °F 2.4 °F 1007.7 in NW 18.5 mph 18.5 mph 50 % 0.0 in 343.0 W/m2 CLR
16:57 12.5 °F 1.5 °F 1007.7 in NNW 30.6 mph 30.6 mph 47 % 0.0 in 327.0 W/m2 CLR
17:02 12.4 °F 1.7 °F 1007.7 in NW 25.9 mph 25.9 mph 48 % 0.0 in 309.0 W/m2 CLR
17:07 12.4 °F 1.4 °F 1007.7 in WNW 18.5 mph 18.5 mph 47 % 0.0 in 295.0 W/m2 CLR
17:12 12.3 °F 1.3 °F 1007.7 in NNW 33.3 mph 33.3 mph 47 % 0.0 in 276.0 W/m2 CLR
17:17 12.3 °F 1.1 °F 1007.7 in WNW 24.1 mph 24.1 mph 46 % 0.0 in 239.0 W/m2 CLR
17:22 12.3 °F 1.6 °F 1008.0 in West 18.5 mph 18.5 mph 48 % 0.0 in 255.0 W/m2 CLR
17:27 12.3 °F 1.6 °F 1008.0 in NNW 22.2 mph 22.2 mph 48 % 0.0 in 230.0 W/m2 CLR
17:32 12.2 °F 1.4 °F 1008.0 in NNW 22.2 mph 22.2 mph 48 % 0.0 in 204.0 W/m2 CLR
17:37 11.9 °F 1.3 °F 1008.0 in NNW 22.2 mph 22.2 mph 48 % 0.0 in 185.0 W/m2 CLR
17:42 11.8 °F 1.1 °F 1008.0 in NW 29.6 mph 29.6 mph 48 % 0.0 in 174.0 W/m2 CLR
17:47 11.8 °F 1.4 °F 1008.4 in NNW 22.2 mph 22.2 mph 49 % 0.0 in 148.0 W/m2 CLR
17:52 11.8 °F 2.0 °F 1008.4 in NNW 16.7 mph 16.7 mph 51 % 0.0 in 127.0 W/m2 CLR
17:53 11.8 °F 2.0 °F 1008.4 in NNW 16.7 mph 16.7 mph 51 % 0.0 in 118.0 W/m2 CLR
17:58 11.9 °F 2.1 °F 1008.4 in NW 11.1 mph 11.1 mph 51 % 0.0 in 105.0 W/m2 CLR
18:03 11.9 °F 2.1 °F 1008.7 in NNW 1.9 mph 1.9 mph 51 % 0.0 in 84.0 W/m2 CLR
18:08 11.6 °F 1.6 °F 1008.7 in NNW 16.7 mph 16.7 mph 50 % 0.0 in 30.0 W/m2 BKN
18:13 11.3 °F 1.8 °F 1009.0 in NNW 11.1 mph 11.1 mph 52 % 0.0 in 42.0 W/m2 BKN
18:18 11.1 °F 1.8 °F 1009.0 in North 13.0 mph 13.0 mph 53 % 0.0 in 30.0 W/m2 BKN
18:23 11.0 °F 1.5 °F 1009.0 in NNW 13.0 mph 13.0 mph 52 % 0.0 in 26.0 W/m2 BKN
18:28 11.1 °F 1.6 °F 1009.4 in NNW 14.8 mph 14.8 mph 52 % 0.0 in 44.0 W/m2 BKN
18:33 11.2 °F 1.1 °F 1009.4 in NW 20.4 mph 20.4 mph 50 % 0.0 in 23.0 W/m2 BKN
18:38 11.1 °F 1.0 °F 1009.4 in NNW 14.8 mph 14.8 mph 50 % 0.0 in 14.0 W/m2 BKN
18:43 10.9 °F 1.7 °F 1009.4 in Calm     53 % 0.0 in 11.0 W/m2 BKN
18:48 10.7 °F 1.4 °F 1009.4 in Calm     53 % 0.0 in 5.0 W/m2 BKN
18:53 10.6 °F 1.1 °F 1009.4 in NW 11.1 mph 11.1 mph 52 % 0.0 in 0.0 W/m2 OVC
18:58 10.4 °F 1.4 °F 1009.4 in NW 7.4 mph 7.4 mph 54 % 0.0 in 0.0 W/m2 OVC
19:03 10.2 °F 1.3 °F 1009.4 in Calm     54 % 0.0 in 0.0 W/m2 CLR
19:08 10.1 °F 1.2 °F 1009.7 in Calm     54 % 0.0 in 0.0 W/m2 CLR
19:13 9.9 °F 1.3 °F 1009.7 in Calm     55 % 0.0 in 0.0 W/m2 CLR
19:18 9.6 °F 1.3 °F 1009.7 in Calm     56 % 0.0 in 0.0 W/m2 CLR
19:23 9.5 °F 1.2 °F 1009.7 in Calm     56 % 0.0 in 0.0 W/m2 CLR
19:28 9.3 °F 1.2 °F 1009.7 in Calm     57 % 0.0 in 0.0 W/m2 CLR
19:33 9.0 °F 1.7 °F 1010.0 in Calm     60 % 0.0 in 0.0 W/m2 CLR
19:38 8.9 °F 1.6 °F 1010.0 in Calm     60 % 0.0 in 0.0 W/m2 CLR
19:43 9.1 °F 1.2 °F 1010.0 in Calm     58 % 0.0 in 0.0 W/m2 CLR
19:48 9.1 °F 1.2 °F 1010.0 in Calm     58 % 0.0 in 0.0 W/m2 CLR
19:53 8.7 °F 1.4 °F 1010.0 in Calm     60 % 0.0 in 0.0 W/m2 CLR
19:58 8.4 °F 1.5 °F 1010.0 in Calm     62 % 0.0 in 0.0 W/m2 CLR
20:03 8.2 °F 1.6 °F 1010.4 in Calm     63 % 0.0 in 0.0 W/m2 CLR
20:08 7.9 °F 1.3 °F 1010.4 in Calm     63 % 0.0 in 0.0 W/m2 CLR
20:13 7.8 °F 1.4 °F 1010.4 in Calm     64 % 0.0 in 0.0 W/m2 CLR
20:18 7.7 °F 1.5 °F 1010.4 in Calm     65 % 0.0 in 0.0 W/m2 CLR
20:23 7.6 °F 1.4 °F 1010.4 in Calm     65 % 0.0 in 0.0 W/m2 CLR
20:28 7.5 °F 1.8 °F 1010.4 in Calm     67 % 0.0 in 0.0 W/m2 CLR
20:33 7.1 °F 1.6 °F 1010.4 in Calm     68 % 0.0 in 0.0 W/m2 CLR
20:38 6.9 °F 1.4 °F 1010.7 in Calm     68 % 0.0 in 0.0 W/m2 CLR
20:43 6.8 °F 1.7 °F 1010.7 in Calm     70 % 0.0 in 0.0 W/m2 CLR
20:49 6.5 °F 1.6 °F 1011.1 in Calm     71 % 0.0 in 0.0 W/m2 CLR
20:54 6.2 °F 1.6 °F 1011.1 in Calm     72 % 0.0 in 0.0 W/m2 CLR
20:59 6.3 °F 1.7 °F 1011.4 in Calm     72 % 0.0 in 0.0 W/m2 CLR
21:04 6.2 °F 1.7 °F 1011.4 in Calm     73 % 0.0 in 0.0 W/m2 CLR
21:09 6.0 °F 1.9 °F 1011.4 in Calm     75 % 0.0 in 0.0 W/m2 CLR
21:14 5.7 °F 1.6 °F 1011.7 in Calm     75 % 0.0 in 0.0 W/m2 CLR
21:19 5.6 °F 1.7 °F 1011.7 in Calm     76 % 0.0 in 0.0 W/m2 CLR
21:24 5.6 °F 1.7 °F 1011.7 in Calm     76 % 0.0 in 0.0 W/m2 CLR
21:29 5.4 °F 1.6 °F 1011.7 in Calm     76 % 0.0 in 0.0 W/m2 CLR
21:34 5.4 °F 1.7 °F 1011.7 in Calm     77 % 0.0 in 0.0 W/m2 CLR
21:39 5.3 °F 1.6 °F 1011.7 in Calm     77 % 0.0 in 0.0 W/m2 CLR
21:44 5.2 °F 1.7 °F 1012.1 in Calm     78 % 0.0 in 0.0 W/m2 CLR
21:49 5.0 °F 1.7 °F 1012.1 in Calm     79 % 0.0 in 0.0 W/m2 CLR
21:54 4.9 °F 1.6 °F 1012.4 in Calm     79 % 0.0 in 0.0 W/m2 CLR
21:59 4.8 °F 1.5 °F 1012.4 in Calm     79 % 0.0 in 0.0 W/m2 CLR
22:04 4.8 °F 1.5 °F 1012.4 in Calm     79 % 0.0 in 0.0 W/m2 CLR
22:09 4.9 °F 1.2 °F 1012.4 in Calm     77 % 0.0 in 0.0 W/m2 CLR
22:14 5.4 °F 1.3 °F 1012.8 in Calm     75 % 0.0 in 0.0 W/m2 CLR
22:19 5.8 °F 1.3 °F 1012.8 in Calm     73 % 0.0 in 0.0 W/m2 CLR
22:24 5.9 °F 1.2 °F 1012.8 in Calm     72 % 0.0 in 0.0 W/m2 CLR
22:29 5.8 °F 1.1 °F 1012.8 in Calm     72 % 0.0 in 0.0 W/m2 CLR
22:34 5.6 °F 1.2 °F 1012.8 in Calm     73 % 0.0 in 0.0 W/m2 CLR
22:39 5.4 °F 1.2 °F 1012.8 in Calm     74 % 0.0 in 0.0 W/m2 CLR
22:44 5.5 °F 1.2 °F 1012.8 in Calm     74 % 0.0 in 0.0 W/m2 CLR
22:49 5.9 °F 1.2 °F 1012.8 in Calm     72 % 0.0 in 0.0 W/m2 CLR
22:54 5.9 °F 1.1 °F 1012.8 in Calm     71 % 0.0 in 0.0 W/m2 CLR
22:59 5.8 °F 1.1 °F 1012.8 in Calm     72 % 0.0 in 0.0 W/m2 CLR
23:04 5.3 °F 0.9 °F 1012.8 in Calm     73 % 0.0 in 0.0 W/m2 CLR
23:09 5.5 °F 1.1 °F 1012.8 in Calm     73 % 0.0 in 0.0 W/m2 CLR
23:14 5.5 °F 1.1 °F 1013.1 in Calm     73 % 0.0 in 0.0 W/m2 CLR
23:19 5.3 °F 1.1 °F 1013.1 in Calm     74 % 0.0 in 0.0 W/m2 CLR
23:24 5.1 °F 1.2 °F 1013.1 in Calm     76 % 0.0 in 0.0 W/m2 CLR
23:29 4.8 °F 0.9 °F 1013.1 in Calm     76 % 0.0 in 0.0 W/m2 CLR
23:34 4.9 °F 1.0 °F 1013.4 in Calm     76 % 0.0 in 0.0 W/m2 CLR
23:39 4.9 °F 1.0 °F 1013.4 in Calm     76 % 0.0 in 0.0 W/m2 CLR
23:44 4.7 °F 1.0 °F 1013.4 in Calm     77 % 0.0 in 0.0 W/m2 CLR
23:49 4.4 °F 0.9 °F 1013.4 in Calm     78 % 0.0 in 0.0 W/m2 CLR
23:54 4.3 °F 0.9 °F 1013.4 in Calm     79 % 0.0 in 0.0 W/m2 CLR
23:59 4.4 °F 0.9 °F 1013.8 in Calm     78 % 0.0 in 0.0 W/m2 CLR
Lo Temps de Massalio
Compliments of Weather Underground - 1.25 mb